Impacts TAF Board
For situational awareness. Not to be used for flight planning purposes.
IDs:

KLAX - Los Angeles Intl, CA, US

Issued at 1732 UTC 20 Sep 2018
Updated at 2010 UTC 20 Sep 2018
Potential Impact None Slight Moderate High
Time1953Z 20/21Z 20/22Z 20/23Z 21/00Z 21/01Z 21/02Z 21/03Z 21/04Z 21/05Z 21/06Z 21/07Z 21/08Z 21/09Z>>
Type OBS PRVL PRVL PRVL PRVL PRVL PRVL PRVL PRVL PRVL PRVL PRVL PRVL PRVL
VIS 8 >6 >6 >6 >6 >6 >6 >6 >6 >6 >6 >6 >6 >6
CIG -- -- -- -- -- -- -- -- -- -- -- -- 10 10
Cover FEW SKC SKC SKC SKC SKC SKC SKC SKC SKC SKC SKC OVC OVC
FltCat VFR VFR VFR VFR VFR VFR VFR VFR VFR VFR VFR VFR MVFR MVFR
WX -- -- -- -- -- -- -- -- -- -- -- -- -- --
WDir 250 260 260 260 260 260 260 260 VRB VRB VRB VRB VRB VRB
WSpd 9 10 10 10 10 10 10 10 3 3 3 3 3 3
WGst -- -- -- -- -- -- -- -- -- -- -- -- -- --
Raw TAF
KLAX 201732Z 2018/2124 VRB05KT P6SM SCT009 SCT012
  FM201900 26010KT P6SM SKC
  FM210400 VRB03KT P6SM SKC
  FM210800 VRB03KT P6SM OVC010
  FM211700 24006KT P6SM SCT015
  FM212000 26012KT P6SM SKC


Raw METAR
KLAX 201953Z 25009KT 8SM FEW018 FEW040 24/17 A2985 RMK AO2 SLP108 T02390167
KLAX 201853Z 27008KT 8SM FEW017 FEW039 24/17 A2986 RMK AO2 SLP110 T02390167
KLAX 201753Z 07004KT 8SM SCT014 24/16 A2986 RMK AO2 SLP111 T02390156 10239 20167 51010

METAR Board
Radar Display
Forecast Discussion
For situational awareness. Not to be used for flight planning purposes.